createdAt,value
2023-09-12T00:00:24.855Z,14.93
2023-09-12T00:02:51.954Z,15.95
2023-09-12T00:05:18.764Z,16.33
2023-09-12T00:07:45.646Z,15.40
2023-09-12T00:10:12.539Z,15.48
2023-09-12T00:12:39.417Z,15.57
2023-09-12T00:15:06.618Z,16.65
2023-09-12T00:17:33.588Z,14.43
2023-09-12T00:20:00.337Z,15.32
2023-09-12T00:22:27.144Z,14.25
2023-09-12T00:24:54.740Z,14.85
2023-09-12T00:27:21.505Z,15.15
2023-09-12T00:29:48.273Z,14.63
2023-09-12T00:32:15.071Z,13.30
2023-09-12T00:34:41.825Z,14.18
2023-09-12T00:37:08.765Z,13.18
2023-09-12T00:39:35.720Z,12.55
2023-09-12T00:42:02.531Z,14.05
2023-09-12T00:44:29.315Z,15.27
2023-09-12T00:46:58.977Z,13.93
2023-09-12T00:49:27.441Z,13.85
2023-09-12T00:51:55.443Z,14.15
2023-09-12T00:54:22.392Z,13.43
2023-09-12T00:56:49.496Z,13.60
2023-09-12T00:59:18.909Z,14.02
2023-09-12T01:01:45.999Z,13.75
2023-09-12T01:04:28.149Z,12.68
2023-09-12T01:07:00.345Z,12.85
2023-09-12T01:09:27.353Z,12.85
2023-09-12T01:11:54.337Z,13.50
2023-09-12T01:14:21.178Z,13.15
2023-09-12T01:16:47.972Z,12.02
2023-09-12T01:19:17.072Z,12.25
2023-09-12T01:22:08.607Z,12.25
2023-09-12T01:24:44.292Z,11.52
2023-09-12T01:27:24.243Z,10.27
2023-09-12T01:29:57.270Z,10.85
2023-09-12T01:32:24.334Z,9.43
2023-09-12T01:34:51.040Z,10.40
2023-09-12T01:37:17.825Z,9.88
2023-09-12T01:39:44.863Z,10.70
2023-09-12T01:42:16.872Z,10.98
2023-09-12T01:44:48.007Z,10.20
2023-09-12T01:47:18.365Z,10.77
2023-09-12T01:49:50.315Z,10.32
2023-09-12T01:52:17.870Z,11.57
2023-09-12T01:54:46.176Z,10.75
2023-09-12T01:57:14.749Z,9.85
2023-09-12T01:59:41.782Z,10.93
2023-09-12T02:02:08.586Z,10.18
2023-09-12T02:04:35.403Z,11.18
2023-09-12T02:07:02.187Z,11.60
2023-09-12T02:09:29.023Z,13.40
2023-09-12T02:11:55.878Z,15.57
2023-09-12T02:14:22.856Z,15.05
2023-09-12T02:16:49.866Z,13.07
2023-09-12T02:19:16.680Z,15.60
2023-09-12T02:21:43.988Z,14.57
2023-09-12T02:24:10.907Z,14.68
2023-09-12T02:26:37.828Z,15.13
2023-09-12T02:29:07.038Z,15.85
2023-09-12T02:31:33.945Z,17.48
2023-09-12T02:34:00.928Z,16.42
2023-09-12T02:36:29.129Z,17.70
2023-09-12T02:38:56.064Z,16.52
2023-09-12T02:41:22.939Z,18.70
2023-09-12T02:43:49.805Z,17.75
2023-09-12T02:46:16.676Z,16.15
2023-09-12T02:48:43.744Z,16.02
2023-09-12T02:51:10.817Z,15.18
2023-09-12T02:53:37.693Z,17.77
2023-09-12T02:56:04.630Z,17.60
2023-09-12T02:58:31.387Z,19.58
2023-09-12T03:00:58.236Z,19.80
2023-09-12T03:03:25.176Z,18.00
2023-09-12T03:06:00.042Z,18.02
2023-09-12T03:08:27.111Z,20.88
2023-09-12T03:10:58.082Z,20.65
2023-09-12T03:13:28.410Z,19.25
2023-09-12T03:15:55.331Z,19.67
2023-09-12T03:18:22.148Z,18.98
2023-09-12T03:20:49.075Z,19.15
2023-09-12T03:23:15.949Z,18.95
2023-09-12T03:25:42.826Z,19.90
2023-09-12T03:28:10.115Z,21.25
2023-09-12T03:30:38.657Z,21.27
2023-09-12T03:33:06.655Z,20.45
2023-09-12T03:35:34.334Z,19.98
2023-09-12T03:38:01.700Z,19.50
2023-09-12T03:40:32.624Z,18.90
2023-09-12T03:42:59.654Z,18.67
2023-09-12T03:45:26.548Z,20.40
2023-09-12T03:47:53.458Z,19.20
2023-09-12T03:50:20.451Z,22.75
2023-09-12T03:52:47.276Z,21.23
2023-09-12T03:55:14.084Z,21.27
2023-09-12T03:57:41.044Z,22.15
2023-09-12T04:00:09.404Z,20.80
2023-09-12T04:02:36.222Z,19.38
2023-09-12T04:05:03.388Z,19.65
2023-09-12T04:07:30.152Z,19.73
2023-09-12T04:09:56.877Z,20.63
2023-09-12T04:12:23.752Z,20.55
2023-09-12T04:14:52.317Z,22.13
2023-09-12T04:17:19.380Z,22.27
2023-09-12T04:19:46.187Z,22.90
2023-09-12T04:22:13.001Z,20.80
2023-09-12T04:24:40.014Z,22.58
2023-09-12T04:27:07.153Z,22.38
2023-09-12T04:29:37.118Z,23.70
2023-09-12T04:32:05.283Z,24.00
2023-09-12T04:34:33.398Z,21.98
2023-09-12T04:37:00.282Z,24.83
2023-09-12T04:39:27.221Z,25.58
2023-09-12T04:41:54.184Z,25.63
2023-09-12T04:44:20.924Z,24.95
2023-09-12T04:46:49.565Z,25.38
2023-09-12T04:49:16.280Z,26.00
2023-09-12T04:51:50.173Z,26.60
2023-09-12T04:54:17.035Z,29.90
2023-09-12T04:56:43.861Z,28.58
2023-09-12T04:59:10.658Z,28.48
2023-09-12T05:01:37.444Z,30.38
2023-09-12T05:04:04.650Z,28.67
2023-09-12T05:06:31.728Z,30.23
2023-09-12T05:08:58.698Z,30.48
2023-09-12T05:11:25.879Z,31.67
2023-09-12T05:13:53.772Z,28.85
2023-09-12T05:16:20.916Z,30.98
2023-09-12T05:18:50.305Z,28.00
2023-09-12T05:21:17.332Z,29.73
2023-09-12T05:23:44.160Z,29.17
2023-09-12T05:26:16.972Z,28.15
2023-09-12T05:28:43.888Z,26.95
2023-09-12T05:31:15.138Z,28.02
2023-09-12T05:33:41.949Z,29.20
2023-09-12T05:36:08.757Z,31.25
2023-09-12T05:38:35.541Z,26.08
2023-09-12T05:41:03.089Z,26.13
2023-09-12T05:43:30.945Z,27.15
2023-09-12T05:45:59.275Z,28.73
2023-09-12T05:48:26.210Z,26.55
2023-09-12T05:50:52.962Z,26.83
2023-09-12T05:53:19.718Z,27.63
2023-09-12T05:55:46.544Z,27.67
2023-09-12T05:58:13.337Z,27.80
2023-09-12T06:00:40.274Z,27.85
2023-09-12T06:03:07.158Z,29.48
2023-09-12T06:05:34.064Z,25.77
2023-09-12T06:08:01.040Z,28.98
2023-09-12T06:10:27.955Z,27.90
2023-09-12T06:12:54.818Z,31.17
2023-09-12T06:15:21.608Z,30.08
2023-09-12T06:17:48.479Z,29.08
2023-09-12T06:20:15.280Z,28.73
2023-09-12T06:22:41.994Z,27.67
2023-09-12T06:25:08.922Z,28.73
2023-09-12T06:27:35.928Z,29.25
2023-09-12T06:30:02.949Z,26.55
2023-09-12T06:32:29.839Z,29.02
2023-09-12T06:34:56.773Z,28.52
2023-09-12T06:37:23.511Z,28.35
2023-09-12T06:39:52.004Z,30.25
2023-09-12T06:42:18.951Z,29.15
2023-09-12T06:44:45.894Z,30.63
2023-09-12T06:47:12.991Z,30.23
2023-09-12T06:49:39.985Z,29.67
2023-09-12T06:52:07.494Z,28.88
2023-09-12T06:54:35.016Z,26.83
2023-09-12T06:57:01.944Z,27.90
2023-09-12T06:59:28.718Z,28.60
2023-09-12T07:01:55.434Z,32.85
2023-09-12T07:04:23.028Z,31.77
2023-09-12T07:06:49.948Z,31.10
2023-09-12T07:09:17.529Z,36.20
2023-09-12T07:11:44.319Z,36.20
2023-09-12T07:14:11.464Z,32.03
2023-09-12T07:16:38.726Z,31.98
2023-09-12T07:19:05.669Z,35.35
2023-09-12T07:21:33.256Z,37.92
2023-09-12T07:24:00.087Z,38.30
2023-09-12T07:26:28.492Z,33.95
2023-09-12T07:28:55.763Z,36.50
2023-09-12T07:31:22.662Z,33.70
2023-09-12T07:33:49.856Z,35.83
2023-09-12T07:36:16.807Z,39.95
2023-09-12T07:38:46.440Z,42.83
2023-09-12T07:41:13.401Z,42.78
2023-09-12T07:43:41.596Z,42.33
2023-09-12T07:46:08.872Z,40.28
2023-09-12T07:48:35.691Z,33.92
2023-09-12T07:51:02.493Z,28.45
2023-09-12T07:53:29.275Z,40.50
2023-09-12T07:56:00.544Z,44.10
2023-09-12T07:58:27.386Z,34.20
2023-09-12T08:00:54.184Z,29.13
2023-09-12T08:03:21.128Z,40.00
2023-09-12T08:05:58.555Z,39.00
2023-09-12T08:08:25.294Z,38.45
2023-09-12T08:10:52.110Z,35.58
2023-09-12T08:13:18.953Z,32.38
2023-09-12T08:15:45.999Z,38.63
2023-09-12T08:18:12.840Z,37.88
2023-09-12T08:20:39.834Z,40.70
2023-09-12T08:23:06.617Z,36.60
2023-09-12T08:25:34.009Z,40.22
2023-09-12T08:28:00.842Z,32.95
2023-09-12T08:30:30.473Z,32.03
2023-09-12T08:32:57.458Z,39.72
2023-09-12T08:35:24.293Z,33.88
2023-09-12T08:37:51.080Z,39.25
2023-09-12T08:40:17.917Z,37.45
2023-09-12T08:42:45.986Z,37.80
2023-09-12T08:45:15.278Z,35.33
2023-09-12T08:47:43.751Z,36.47
2023-09-12T08:50:14.091Z,39.90
2023-09-12T08:52:56.103Z,37.35
2023-09-12T08:55:27.227Z,39.47
2023-09-12T08:57:56.508Z,33.35
2023-09-12T09:00:24.665Z,38.42
2023-09-12T09:02:52.679Z,31.17
2023-09-12T09:05:23.376Z,35.90
2023-09-12T09:07:52.439Z,32.58
2023-09-12T09:10:28.687Z,32.60
2023-09-12T09:13:07.595Z,39.28
2023-09-12T09:15:34.586Z,36.75
2023-09-12T09:18:05.114Z,39.97
2023-09-12T09:20:37.523Z,32.88
2023-09-12T09:23:06.471Z,39.00
2023-09-12T09:25:34.962Z,41.05
2023-09-12T09:28:06.164Z,37.55
2023-09-12T09:30:44.110Z,36.95
2023-09-12T09:33:12.212Z,31.20
2023-09-12T09:35:41.574Z,40.28
2023-09-12T09:38:09.327Z,35.63
2023-09-12T09:40:37.788Z,33.13
2023-09-12T09:43:05.085Z,31.67
2023-09-12T09:45:33.390Z,26.42
2023-09-12T09:48:08.065Z,29.90
2023-09-12T09:50:39.035Z,29.50
2023-09-12T09:53:09.475Z,26.88
2023-09-12T09:55:36.320Z,29.88
2023-09-12T09:58:06.292Z,25.08
2023-09-12T10:00:35.658Z,28.05
2023-09-12T10:03:06.138Z,30.42
2023-09-12T10:05:38.679Z,30.20
2023-09-12T10:08:10.919Z,31.02
2023-09-12T10:10:39.725Z,27.13
2023-09-12T10:13:08.333Z,31.83
2023-09-12T10:15:38.048Z,28.55
2023-09-12T10:20:53.433Z,28.17
2023-09-12T10:23:42.912Z,33.60
2023-09-12T10:26:14.538Z,31.48
2023-09-12T10:28:45.517Z,31.52
2023-09-12T10:31:14.349Z,31.20
2023-09-12T10:33:42.060Z,32.35
2023-09-12T10:36:10.751Z,26.98
2023-09-12T10:38:45.317Z,34.65
2023-09-12T10:41:16.447Z,33.33
2023-09-12T10:43:48.020Z,29.95
2023-09-12T10:46:14.967Z,36.08
2023-09-12T10:48:42.199Z,38.55
2023-09-12T10:51:10.615Z,35.33
2023-09-12T10:53:37.701Z,36.88
2023-09-12T10:56:10.654Z,31.08
2023-09-12T10:59:14.745Z,30.90
2023-09-12T11:01:43.919Z,27.08
2023-09-12T11:04:25.720Z,32.40
2023-09-12T11:06:52.867Z,30.13
2023-09-12T11:09:23.146Z,29.23
2023-09-12T11:12:11.133Z,29.05
2023-09-12T11:14:57.848Z,30.35
2023-09-12T11:17:24.874Z,28.52
2023-09-12T11:19:54.059Z,31.15
2023-09-12T11:22:30.066Z,30.90
2023-09-12T11:24:57.430Z,31.85
2023-09-12T11:27:26.950Z,28.52
2023-09-12T11:29:53.850Z,29.60
2023-09-12T11:32:37.239Z,32.40
2023-09-12T11:35:11.388Z,25.08
2023-09-12T11:37:38.419Z,31.50
2023-09-12T11:40:26.749Z,30.08
2023-09-12T11:42:54.025Z,32.00
2023-09-12T11:45:22.606Z,26.65
2023-09-12T11:47:49.970Z,31.85
2023-09-12T11:50:33.839Z,28.50
2023-09-12T11:53:11.470Z,32.83
2023-09-12T11:55:47.200Z,30.05
2023-09-12T11:58:18.420Z,30.77
2023-09-12T12:00:56.039Z,31.05
2023-09-12T12:03:28.466Z,28.48
2023-09-12T12:05:56.530Z,25.60
2023-09-12T12:10:54.348Z,28.05
2023-09-12T12:13:22.833Z,24.05
2023-09-12T12:15:50.289Z,21.58
2023-09-12T12:18:17.168Z,22.65
2023-09-12T12:20:44.201Z,24.80
2023-09-12T12:23:11.915Z,23.98
2023-09-12T12:25:38.776Z,23.92
2023-09-12T12:28:06.019Z,25.55
2023-09-12T12:30:35.022Z,19.33
2023-09-12T12:33:12.994Z,20.55
2023-09-12T12:36:05.373Z,21.30
2023-09-12T12:38:41.321Z,20.77
2023-09-12T12:41:12.049Z,20.63
2023-09-12T12:43:42.964Z,22.77
2023-09-12T12:46:13.961Z,21.13
2023-09-12T12:48:46.412Z,19.42
2023-09-12T12:51:24.025Z,19.50
2023-09-12T12:53:55.937Z,21.38
2023-09-12T12:56:24.037Z,19.73
2023-09-12T12:58:53.470Z,19.05
2023-09-12T13:01:20.505Z,20.10
2023-09-12T13:03:48.235Z,21.00
2023-09-12T13:06:15.634Z,21.15
2023-09-12T13:08:43.468Z,22.70
2023-09-12T13:11:11.400Z,23.25
2023-09-12T13:13:39.046Z,19.55
2023-09-12T13:16:06.589Z,21.38
2023-09-12T13:18:36.429Z,23.63
2023-09-12T13:21:05.045Z,21.77
2023-09-12T13:23:32.369Z,21.10
2023-09-12T13:25:59.207Z,24.08
2023-09-12T13:28:28.934Z,23.48
2023-09-12T13:30:56.276Z,21.08
2023-09-12T13:33:23.384Z,23.02
2023-09-12T13:35:51.531Z,23.73
2023-09-12T13:38:20.538Z,24.73
2023-09-12T13:40:48.061Z,25.27
2023-09-12T13:43:15.903Z,21.05
2023-09-12T13:45:42.971Z,24.02
2023-09-12T13:48:10.210Z,23.70
2023-09-12T13:50:37.081Z,26.02
2023-09-12T13:53:07.954Z,26.75
2023-09-12T13:56:01.305Z,26.85
2023-09-12T13:58:23.604Z,21.58
2023-09-12T14:00:51.034Z,25.40
2023-09-12T14:03:17.975Z,24.08
2023-09-12T14:05:45.539Z,23.65
2023-09-12T14:08:12.663Z,26.83
2023-09-12T14:10:40.792Z,24.88
2023-09-12T14:13:20.741Z,23.25
2023-09-12T14:15:51.663Z,23.83
2023-09-12T14:18:19.771Z,24.38
2023-09-12T14:20:48.223Z,23.83
2023-09-12T14:23:16.125Z,27.45
2023-09-12T14:25:43.534Z,26.70
2023-09-12T14:28:11.635Z,24.67
2023-09-12T14:30:39.458Z,28.50
2023-09-12T14:33:06.862Z,25.13
2023-09-12T14:35:33.842Z,24.05
2023-09-12T14:38:00.686Z,25.17
2023-09-12T14:40:28.908Z,24.85
2023-09-12T14:42:56.092Z,22.30
2023-09-12T14:45:23.359Z,18.23
2023-09-12T14:47:50.363Z,16.42
2023-09-12T14:50:17.869Z,14.63
2023-09-12T14:52:45.336Z,14.25
2023-09-12T14:55:12.283Z,11.70
2023-09-12T14:57:39.115Z,12.80
2023-09-12T15:00:06.762Z,12.57
2023-09-12T15:02:33.772Z,12.40
2023-09-12T15:05:06.418Z,11.40
2023-09-12T15:07:34.525Z,10.45
2023-09-12T15:10:01.418Z,10.50
2023-09-12T15:12:28.787Z,10.65
2023-09-12T15:14:55.623Z,9.75
2023-09-12T15:17:22.486Z,9.73
2023-09-12T15:19:49.305Z,8.52
2023-09-12T15:22:17.146Z,8.50
2023-09-12T15:24:44.030Z,8.52
2023-09-12T15:27:10.820Z,10.43
2023-09-12T15:29:37.750Z,10.13
2023-09-12T15:32:07.017Z,11.90
2023-09-12T15:34:33.949Z,13.77
2023-09-12T15:37:20.516Z,11.82
2023-09-12T15:39:49.339Z,11.23
2023-09-12T15:42:29.728Z,10.32
2023-09-12T15:45:02.715Z,10.63
2023-09-12T15:47:31.050Z,9.10
2023-09-12T15:49:58.258Z,9.07
2023-09-12T15:52:25.241Z,8.93
2023-09-12T15:54:53.648Z,8.88
2023-09-12T15:57:20.846Z,8.77
2023-09-12T15:59:48.850Z,7.97
2023-09-12T16:02:15.844Z,6.93
2023-09-12T16:04:43.084Z,6.65
2023-09-12T16:07:09.872Z,5.72
2023-09-12T16:09:36.793Z,4.57
2023-09-12T16:12:04.278Z,5.55
2023-09-12T16:14:31.255Z,5.00
2023-09-12T16:16:58.068Z,4.88
2023-09-12T16:19:24.895Z,5.10
2023-09-12T16:21:51.717Z,5.30
2023-09-12T16:24:18.766Z,5.13
2023-09-12T16:26:46.193Z,5.82
2023-09-12T16:29:12.934Z,5.95
2023-09-12T16:31:40.324Z,5.00
2023-09-12T16:34:07.315Z,5.05
2023-09-12T16:36:34.823Z,5.40
2023-09-12T16:39:01.614Z,5.03
2023-09-12T16:41:28.429Z,6.20
2023-09-12T16:43:57.300Z,5.07
2023-09-12T16:46:24.713Z,5.93
2023-09-12T16:48:51.665Z,8.70
2023-09-12T16:51:18.514Z,10.98
2023-09-12T16:53:45.683Z,8.43
2023-09-12T16:56:12.672Z,9.38
2023-09-12T16:58:40.572Z,9.20
2023-09-12T17:01:07.323Z,8.75
2023-09-12T17:03:34.246Z,9.75
2023-09-12T17:06:02.667Z,9.57
2023-09-12T17:08:29.979Z,10.13
2023-09-12T17:10:56.751Z,9.30
2023-09-12T17:13:23.535Z,10.02
2023-09-12T17:15:50.455Z,9.23
2023-09-12T17:18:17.342Z,9.35
2023-09-12T17:20:44.308Z,9.35
2023-09-12T17:23:11.724Z,8.55
2023-09-12T17:25:38.477Z,9.60
2023-09-12T17:28:05.728Z,9.43
2023-09-12T17:30:32.543Z,8.65
2023-09-12T17:33:02.424Z,9.00
2023-09-12T17:35:29.437Z,9.15
2023-09-12T17:37:56.247Z,8.48
2023-09-12T17:40:23.419Z,9.65
2023-09-12T17:42:51.108Z,8.02
2023-09-12T17:45:17.977Z,8.30
2023-09-12T17:47:44.759Z,7.75
2023-09-12T17:50:11.556Z,7.45
2023-09-12T17:52:39.328Z,7.38
2023-09-12T17:55:06.352Z,6.88
2023-09-12T17:57:33.210Z,7.22
2023-09-12T18:00:00.230Z,6.47
2023-09-12T18:02:27.240Z,8.40
2023-09-12T18:04:54.242Z,7.55
2023-09-12T18:07:22.414Z,9.25
2023-09-12T18:09:51.338Z,8.52
2023-09-12T18:12:18.268Z,9.13
2023-09-12T18:14:45.447Z,9.35
2023-09-12T18:17:12.489Z,9.00
2023-09-12T18:19:39.438Z,9.30
2023-09-12T18:22:07.521Z,9.43
2023-09-12T18:24:34.431Z,9.90
2023-09-12T18:27:01.224Z,10.38
2023-09-12T18:29:28.044Z,9.40
2023-09-12T18:31:56.008Z,10.57
2023-09-12T18:34:22.837Z,12.00
2023-09-12T18:36:49.650Z,13.73
2023-09-12T18:39:21.375Z,14.38
2023-09-12T18:41:48.191Z,15.45
2023-09-12T18:44:15.249Z,16.00
2023-09-12T18:46:42.202Z,18.30
2023-09-12T18:49:09.180Z,19.58
2023-09-12T18:51:36.989Z,18.08
2023-09-12T18:54:04.027Z,17.15
2023-09-12T18:56:31.405Z,17.85
2023-09-12T18:58:58.243Z,16.95
2023-09-12T19:01:25.172Z,17.27
2023-09-12T19:03:52.432Z,16.33
2023-09-12T19:06:19.320Z,15.68
2023-09-12T19:08:46.042Z,16.10
2023-09-12T19:11:12.893Z,15.10
2023-09-12T19:13:42.988Z,14.88
2023-09-12T19:16:10.244Z,15.20
2023-09-12T19:18:38.023Z,13.73
2023-09-12T19:21:06.299Z,14.27
2023-09-12T19:23:33.165Z,14.02
2023-09-12T19:25:59.919Z,13.88
2023-09-12T19:28:26.764Z,15.40
2023-09-12T19:30:54.637Z,14.73
2023-09-12T19:33:21.476Z,14.90
2023-09-12T19:35:48.292Z,14.52
2023-09-12T19:38:15.864Z,13.57
2023-09-12T19:40:42.790Z,14.30
2023-09-12T19:43:11.118Z,13.68
2023-09-12T19:45:39.875Z,12.93
2023-09-12T19:48:11.775Z,12.65
2023-09-12T19:50:39.075Z,13.05
2023-09-12T19:53:06.992Z,10.52
2023-09-12T19:55:34.400Z,11.73
2023-09-12T19:58:01.369Z,10.82
2023-09-12T20:00:29.048Z,9.88
2023-09-12T20:02:59.028Z,10.73
2023-09-12T20:05:28.051Z,9.98
2023-09-12T20:07:54.856Z,10.02
2023-09-12T20:10:22.873Z,10.27
2023-09-12T20:12:51.472Z,10.07
2023-09-12T20:15:18.527Z,8.95
2023-09-12T20:17:48.938Z,9.35
2023-09-12T20:20:19.897Z,8.48
2023-09-12T20:22:49.330Z,7.15
2023-09-12T20:25:16.244Z,7.68
2023-09-12T20:27:43.403Z,7.45
2023-09-12T20:30:10.636Z,7.55
2023-09-12T20:32:51.516Z,7.65
2023-09-12T20:35:26.582Z,7.75
2023-09-12T20:37:53.474Z,7.97
2023-09-12T20:40:20.381Z,7.43
2023-09-12T20:42:49.246Z,7.18
2023-09-12T20:45:16.135Z,7.38
2023-09-12T20:47:42.996Z,7.60
2023-09-12T20:50:11.596Z,7.68
2023-09-12T20:52:39.000Z,7.63
2023-09-12T20:55:06.790Z,8.45
2023-09-12T20:57:36.393Z,9.10
2023-09-12T21:00:06.324Z,9.07
2023-09-12T21:02:35.567Z,9.82
2023-09-12T21:05:02.430Z,10.43
2023-09-12T21:07:29.230Z,10.43
2023-09-12T21:09:56.031Z,10.10
2023-09-12T21:12:25.384Z,10.00
2023-09-12T21:14:52.723Z,9.77
2023-09-12T21:17:19.542Z,9.93
2023-09-12T21:19:46.249Z,12.05
2023-09-12T21:22:13.070Z,9.50
2023-09-12T21:24:40.352Z,12.95
2023-09-12T21:27:09.376Z,11.95
2023-09-12T21:29:36.209Z,13.18
2023-09-12T21:32:03.115Z,12.80
2023-09-12T21:34:29.955Z,12.85
2023-09-12T21:36:56.945Z,13.50
2023-09-12T21:39:23.728Z,12.75
2023-09-12T21:41:50.627Z,14.07
2023-09-12T21:44:17.709Z,12.75
2023-09-12T21:46:44.598Z,11.98
2023-09-12T21:49:11.551Z,11.85
2023-09-12T21:51:38.425Z,12.07
2023-09-12T21:54:05.529Z,14.18
2023-09-12T21:56:32.307Z,12.82
2023-09-12T21:58:59.158Z,13.80
2023-09-12T22:01:26.310Z,13.90
2023-09-12T22:03:53.318Z,13.60
2023-09-12T22:06:20.124Z,12.10
2023-09-12T22:08:46.910Z,11.90
2023-09-12T22:11:15.168Z,13.02
2023-09-12T22:13:42.397Z,14.38
2023-09-12T22:16:09.517Z,13.23
2023-09-12T22:18:36.431Z,13.30
2023-09-12T22:21:08.654Z,15.82
2023-09-12T22:23:37.213Z,15.40
2023-09-12T22:26:14.129Z,14.68
2023-09-12T22:28:40.948Z,14.88
2023-09-12T22:31:12.536Z,15.02
2023-09-12T22:33:43.443Z,14.77
2023-09-12T22:36:18.783Z,16.00
2023-09-12T22:38:47.155Z,17.27
2023-09-12T22:41:13.953Z,15.30
2023-09-12T22:43:40.851Z,15.63
2023-09-12T22:46:08.659Z,16.83
2023-09-12T22:48:35.840Z,14.13
2023-09-12T22:51:02.788Z,14.45
2023-09-12T22:53:30.498Z,14.95
2023-09-12T22:55:57.371Z,12.95
2023-09-12T22:58:24.190Z,14.98
2023-09-12T23:00:51.878Z,13.55
2023-09-12T23:03:18.779Z,13.35
2023-09-12T23:05:46.718Z,13.85
2023-09-12T23:08:13.874Z,14.10
2023-09-12T23:10:40.767Z,13.52
2023-09-12T23:13:07.720Z,12.93
2023-09-12T23:15:36.839Z,13.27
2023-09-12T23:18:04.127Z,13.43
2023-09-12T23:20:34.723Z,13.32
2023-09-12T23:23:02.235Z,13.93
2023-09-12T23:25:29.019Z,13.93
2023-09-12T23:27:55.772Z,15.07
2023-09-12T23:30:22.540Z,13.40
2023-09-12T23:32:49.347Z,14.35
2023-09-12T23:35:16.175Z,14.98
2023-09-12T23:37:43.200Z,13.02
2023-09-12T23:40:10.679Z,13.25
2023-09-12T23:42:39.004Z,11.98
2023-09-12T23:45:06.286Z,13.15
2023-09-12T23:47:33.169Z,12.63
2023-09-12T23:49:59.990Z,14.00
2023-09-12T23:52:28.726Z,14.90
2023-09-12T23:54:55.719Z,14.20
2023-09-12T23:57:22.565Z,14.25
2023-09-12T23:59:49.918Z,15.30
